ADDS METAR Data INFO
IDs: Format: Raw Decoded Include TAF

Data at: 1213 UTC 24 Mar 2017

METAR for:EBFS (Florennes(AB), --, BX)
Text:EBFS 241155Z 06010KT 8000 SCT016 SCT220 10/06 Q1026 WHT BLU TEMPO WHT
Temperature: 10.0°C ( 50°F)
Dewpoint: 6.0°C ( 43°F) [RH = 76%]
Pressure (altimeter):30.30 inches Hg (1026.0 mb)
Winds:from the ENE (60 degrees) at 12 MPH (10 knots; 5.1 m/s)
Visibility: 5 sm ( 8 km)
Ceiling:at least 12,000 feet AGL
Clouds: scattered clouds at 1600 feet AGL, scattered clouds at 22000 feet AGL

TAF for:EBFS (Florennes(AB), --, BX) issued at 0841 UTC 24 Mar 2017
Text:TAF EBFS 240841Z 2410/2419 09010KT 9999 FEW020 SCT220
Forecast period:1000 to 1900 UTC 24 March 2017
Forecast type:FROM: standard forecast or significant change
Winds:from the E (90 degrees) at 12 MPH (10 knots; 5.1 m/s)
Visibility:6 or more sm (10+ km)
Ceiling:at least 12,000 feet AGL
Clouds: few clouds at 2000 feet AGL, scattered clouds at 22000 feet AGL
Text:TEMPO 2410/2412 SCT020 SCT220
Forecast period:1000 to 1200 UTC 24 March 2017
Forecast type:TEMPORARY: The following changes expected for less than half the time period
Ceiling:at least 12,000 feet AGL
Clouds: scattered clouds at 2000 feet AGL, scattered clouds at 22000 feet AGL


Page loaded:  12:13 UTC  |   05:13 AM Pacific  |   06:13 AM Mountain  |   07:13 AM Central  |   08:13 AM Eastern

 

ADVISORIES

FORECASTS

FORECASTS

OBSERVATIONS

USER TOOLS

ABOUT US